Ironton, OH (45638)

6:38 PM EDT on August 31, 2015 (GMT -0400)
South Ironton | | Change Station
CLOSE
Current Station
Personal Weather Station
Location: Ironton, OH
Elevation: 551 ft
Nearby Weather Stations

Elev 551 ft 38.52 °N, 82.67 °W | Updated 13 seconds ago

Overcast
Overcast
84.7 °F
Feels Like 88 °F
N
1.1
Wind Variable Wind from NNE

Today
High -- | Low -- °F
--% Chance of Precip.
Yesterday
High -- | Low -- °F
Precip. -- in
6:58 AM 8:02 PM
Waning Gibbous, 93% visible
Pressure 30.06 in
Visibility 3.0 miles
Clouds Mostly Cloudy 4400 ft
Overcast 5500 ft
Heat Index 88 °F
Dew Point 68 °F
Humidity 57%
Rainfall 0.00 in
Snow Depth Not available.
UV 1 out of 12
Pollen 9.40 out of 12
Air Quality Not available.
Flu Activity Not available.
METAR KHTS 312151Z COR 00000KT 3SM -RA BKN044 OVC055 26/21 A3008 RMK AO2 RAB09 SLP177 P0000 T02560206
Pressure 30.06 in
Visibility 3.0 miles
Clouds Mostly Cloudy 4400 ft
Overcast 5500 ft
Heat Index 88 °F
Dew Point 68 °F
Humidity 57%
Rainfall 0.00 in
Snow Depth Not available.
UV 1 out of 12
Pollen 9.40 out of 12
Air Quality Not available.
Flu Activity Not available.
METAR KHTS 312151Z COR 00000KT 3SM -RA BKN044 OVC055 26/21 A3008 RMK AO2 RAB09 SLP177 P0000 T02560206

10-Day Weather Forecast

×

Almanac

Astronomy

Aug. 31, 2015 Rise Set
Actual Time
Civil Twilight
Nautical Twilight
Astronomical Twilight
Moon
Length of Visible Light
Length of Day
Tomorrow will be .
, % of the Moon is Illuminated

Today's Extremes

State Highs State Lows

Community

WunderPhotos

Upload Photos

1,851,390 photos uploaded!

WunderBlogs® & News

Nearby

Air Quality

  Air Quality AQ Index Pollutant
Not available.

Snow Depth

Station Depth Elevation

Earthquake Activity

City Distance Mag. Time & Date
Minimum magnitude displayed is 2.5.

Coastal Water Temperatures

Place Temperature

Stations

Nearby Weather Stations

Station Location Temp. Windchill Dew Point Humidity Wind Precip. Elev Updated Type